Flight Track Log - Related Links

Times and Time Zones

All times are in EDT time to prevent confusion due to time zone crossing. See the AM214 flight status page for this flight to view local times or setup timezone preferences in your user account.

Time Position Orientation Groundspeed Altitude Reporting Facility
EDT Latitude Longitude Course Direction KTS MPH feet Rate Location/Type
Thu 03:15:47 AM -32.7930 151.8340 309° West 20 23  Level FlightAware ADS-B
Thu 03:16:22 AM -32.7930 151.8330 270° West 9 10 204 Level FlightAware ADS-B
Thu 03:17:22 AM -32.7900 151.8300 320° Northwest 16 18 235 Level FlightAware ADS-B
Thu 03:18:07 AM -32.7890 151.8280 301° West 11 13 318 Level FlightAware ADS-B
Thu 03:19:27 AM -32.7910 151.8280 180° South 78 90 432 Level FlightAware ADS-B
Thu 03:19:52 AM -32.7960 151.8360 127° Southeast 78 90 1,200 Level FlightAware ADS-B
Thu 03:20:12 AM -32.8090 151.8550 129° Southeast 147 169 900 2,267 Climbing FlightAware ADS-B
Thu 03:20:37 AM -32.8020 151.8750 67° East 181 208 1,700 1,964 Climbing FlightAware ADS-B
Thu 03:21:07 AM -32.7790 151.8910 30° Northeast 189 217 2,700 2,280 Climbing FlightAware ADS-B
Thu 03:21:27 AM -32.7620 151.9030 31° Northeast 192 221 3,600 2,936 Climbing FlightAware ADS-B
Thu 03:21:54 AM -32.7399 151.9190 31° Northeast 192 221 5,000 2,229 Climbing Aus ATC (RADAR)
Thu 03:22:02 AM -32.7360 151.9220 31° Northeast 190 219 4,900 1,273 Descending FlightAware ADS-B
Thu 03:22:27 AM -32.7170 151.9360 32° Northeast 190 219 5,700 1,855 Climbing FlightAware ADS-B
Thu 03:22:57 AM -32.6940 151.9530 32° Northeast 193 222 6,600 1,900 Climbing FlightAware ADS-B
Thu 03:23:27 AM -32.6720 151.9690 31° Northeast 193 222 7,600 1,855 Climbing FlightAware ADS-B
Thu 03:23:52 AM -32.6530 151.9830 32° Northeast 190 219 8,300 2,195 Climbing FlightAware ADS-B
Thu 03:24:08 AM -32.6376 151.9946 32° Northeast 196 226 9,100 1,400 Climbing Aus ATC (RADAR)
Thu 03:24:22 AM -32.6290 152.0010 32° Northeast 208 239 9,000 1,600 Descending FlightAware ADS-B
Thu 03:24:38 AM -32.6129 152.0130 32° Northeast 206 237 9,900 1,920 Climbing Aus ATC (RADAR)
Thu 03:24:47 AM -32.6080 152.0160 32° Northeast 207 238 9,800 1,444 Descending FlightAware ADS-B
Thu 03:25:32 AM -32.5710 152.0440 33° Northeast 213 245 11,200 1,835 Climbing FlightAware ADS-B
Thu 03:26:12 AM -32.5370 152.0690 32° Northeast 210 242 12,400 1,271 Climbing FlightAware ADS-B
Thu 03:26:57 AM -32.4970 152.0990 32° Northeast 253 291 13,000 424 Climbing FlightAware ADS-B
Thu 03:27:37 AM -32.4550 152.1290 31° Northeast 263 303 13,000 364 Level FlightAware ADS-B
Thu 03:28:03 AM -32.4248 152.1504 31° Northeast 263 303 13,400  Climbing Aus ATC (RADAR)
Thu 03:28:12 AM -32.4190 152.1550 31° Northeast 264 304 13,000  Descending FlightAware ADS-B
Thu 03:28:38 AM -32.3883 152.1777 31° Northeast 266 306 13,400  Climbing Aus ATC (RADAR)
Thu 03:28:52 AM -32.3770 152.1860 31° Northeast 266 306 13,000 -407 Descending FlightAware ADS-B
Thu 03:29:37 AM -32.3290 152.2210 32° Northeast 266 306 13,000 338 Level FlightAware ADS-B
Thu 03:30:03 AM -32.2994 152.2428 32° Northeast 267 307 13,400  Climbing Aus ATC (RADAR)
Thu 03:30:17 AM -32.2880 152.2510 32° Northeast 265 305 13,000  Descending FlightAware ADS-B
Thu 03:30:43 AM -32.2577 152.2732 32° Northeast 266 306 13,400  Climbing Aus ATC (RADAR)
Thu 03:31:02 AM -32.2410 152.2850 32° Northeast 265 305 13,000 -407 Descending FlightAware ADS-B
Thu 03:31:42 AM -32.2000 152.3150 32° Northeast 265 305 13,000 429 Level FlightAware ADS-B
Thu 03:31:58 AM -32.1795 152.3303 32° Northeast 266 306 13,400  Climbing Aus ATC (RADAR)
Thu 03:32:27 AM -32.1520 152.3500 32° Northeast 264 304 13,000 -348 Descending FlightAware ADS-B
Thu 03:33:07 AM -32.1110 152.3800 32° Northeast 264 304 13,000 321 Level FlightAware ADS-B
Thu 03:33:23 AM -32.0908 152.3948 32° Northeast 266 306 13,300  Climbing Aus ATC (RADAR)
Thu 03:33:57 AM -32.0650 152.4130 32° Northeast 265 305 13,000  Descending FlightAware ADS-B
Thu 03:34:27 AM -32.0228 152.4447 32° Northeast 269 310 13,300  Climbing Aus ATC (RADAR)
Thu 03:34:47 AM -32.0050 152.4570 32° Northeast 265 305 13,000  Descending FlightAware ADS-B
Thu 03:35:07 AM -31.9811 152.4752 32° Northeast 267 307 13,300  Climbing Aus ATC (RADAR)
Thu 03:35:22 AM -31.9740 152.4800 32° Northeast 265 305 13,000  Descending FlightAware ADS-B
Thu 03:36:02 AM -31.9242 152.5158 32° Northeast 262 302 13,300  Climbing Aus ATC (RADAR)
Thu 03:36:02 AM -31.9310 152.5100 32° Northeast 263 303 13,000 -400 Descending FlightAware ADS-B
Thu 03:36:47 AM -31.8850 152.5430 31° Northeast 262 302 13,000 -600 Level FlightAware ADS-B
Thu 03:37:22 AM -31.8450 152.5730 31° Northeast 269 310 12,200 -1,200 Descending FlightAware ADS-B
Thu 03:37:27 AM -31.8347 152.5809 31° Northeast 275 316 12,200  Level Aus ATC (RADAR)
Thu 03:38:17 AM -31.7950 152.6100 32° Northeast 269 310 12,200 -1,500 Level FlightAware ADS-B
Thu 03:38:47 AM -31.7467 152.6445 32° Northeast 278 320 10,200  Descending Aus ATC (RADAR)
Thu 03:38:57 AM -31.7590 152.6360 32° Northeast 269 310 12,200 -1,511 Climbing FlightAware ADS-B
Thu 03:41:00 AM -31.6470 152.7150 31° Northeast  Level Estimated
Thu 03:41:02 AM -31.6067 152.7446 31° Northeast 255 293 6,800  Level Aus ATC (RADAR)
Thu 03:41:22 AM -31.5876 152.7584 32° Northeast 248 285 6,400 -1,200 Descending Aus ATC (RADAR)
Thu 03:42:17 AM -31.5366 152.7949 31° Northeast 234 269 5,300 -1,200 Descending Aus ATC (RADAR)
Thu 03:42:52 AM -31.5043 152.8178 31° Northeast 234 269 4,600 -1,200 Descending Aus ATC (RADAR)
Thu 03:43:17 AM -31.4784 152.8338 28° Northeast 240 276 4,100 -1,200 Descending Aus ATC (RADAR)
Thu 03:45:00 AM -31.4359 152.8634 264° West  Level FlightAware Approximate
Thu 03:52:00 AM -31.4358 152.8633 264° West  Level Estimated
Thu 03:53:00 AM -31.4358 152.8633 264° West  Level Estimated
Thu 03:54:00 AM -31.4358 152.8633 264° West  Level Estimated
Thu 03:55:00 AM -31.4358 152.8633 264° West  Level Estimated
Thu 03:56:00 AM -31.4358 152.8633 264° West  Level Estimated

Login

Don't have an account? Register now (free) for customized features, flight alerts, and more!